Time;durP1;ratioP1;P1;durP2;ratioP2;P2;SDS_P1;SDS_P2;PMS_P1;PMS_P2;Temp;Humidity;BMP_temperature;BMP_pressure;BME280_temperature;BME280_humidity;BME280_pressure;Samples;Min_cycle;Max_cycle;Signal;HPM_P1;HPM_P2
2022/11/11 00:01:03;;;;;;;1.80;1.25;;;;;;;;;;4996209;28;20052;-82
2022/11/11 00:03:47;;;;;;;2.97;1.60;;;;;;;;;;4995905;28;20053;-81
2022/11/11 00:06:31;;;;;;;2.28;1.13;;;;;;;;;;4996254;28;20045;-82
2022/11/11 00:09:15;;;;;;;;;;;;;;;;;;4996486;28;20504;-80
2022/11/11 00:11:59;;;;;;;2.38;1.30;;;;;;;;;;4995596;28;20029;-82
2022/11/11 00:14:42;;;;;;;;;;;;;;;;;;4993768;28;20052;-82
2022/11/11 00:26:38;;;;;;;1.98;1.20;;;;;;;;;;4997905;28;20049;-82
2022/11/11 00:29:22;;;;;;;2.35;1.40;;;;;;;;;;4997689;28;20104;-83
2022/11/11 00:32:22;;;;;;;;;;;;;;;;;;4998998;28;20065;-81
2022/11/11 00:38:54;;;;;;;2.10;1.40;;;;;;;;;;4997622;28;20053;-83
2022/11/11 00:41:21;;;;;;;1.63;1.23;;;;;;;;;;4997130;28;20460;-83
2022/11/11 00:44:06;;;;;;;3.83;1.20;;;;;;;;;;4996661;28;20049;-82
2022/11/11 00:53:23;;;;;;;1.95;1.40;;;;;;;;;;4997202;28;20093;-83
2022/11/11 00:56:07;;;;;;;2.40;1.40;;;;;;;;;;4996129;28;20045;-83
2022/11/11 00:58:51;;;;;;;1.75;1.20;;;;;;;;;;4997358;28;20526;-83
2022/11/11 01:01:39;;;;;;;2.13;1.20;;;;;;;;;;4996140;28;20470;-83
2022/11/11 01:04:32;;;;;;;1.88;1.10;;;;;;;;;;4996719;28;20082;-83
2022/11/11 01:07:16;;;;;;;1.98;1.40;;;;;;;;;;4997012;28;20070;-83
2022/11/11 01:10:00;;;;;;;2.20;1.40;;;;;;;;;;4996735;28;20076;-83
2022/11/11 01:12:43;;;;;;;;;;;;;;;;;;4996744;28;20104;-81
2022/11/11 01:15:31;;;;;;;1.50;1.20;;;;;;;;;;4997030;28;19980;-83
2022/11/11 01:18:21;;;;;;;2.03;1.30;;;;;;;;;;4997152;28;20053;-82
2022/11/11 01:21:17;;;;;;;1.50;1.10;;;;;;;;;;4997047;28;20049;-82
2022/11/11 01:24:01;;;;;;;2.08;1.25;;;;;;;;;;4996002;28;20049;-82
2022/11/11 01:26:45;;;;;;;1.20;1.10;;;;;;;;;;4998644;28;20135;-81
2022/11/11 01:29:29;;;;;;;5.38;1.30;;;;;;;;;;5000479;28;20052;-83
2022/11/11 01:32:13;;;;;;;;;;;;;;;;;;5001214;28;20049;-81
2022/11/11 01:34:57;;;;;;;1.80;1.20;;;;;;;;;;4999788;28;19925;-83
2022/11/11 01:37:41;;;;;;;1.40;1.10;;;;;;;;;;5000493;28;20053;-82
2022/11/11 01:40:25;;;;;;;2.15;1.10;;;;;;;;;;4999990;28;20558;-83
2022/11/11 01:43:09;;;;;;;1.30;1.02;;;;;;;;;;5000416;28;20044;-82
2022/11/11 01:45:59;;;;;;;1.33;0.93;;;;;;;;;;4999733;28;20053;-82
2022/11/11 01:51:53;;;;;;;1.80;1.02;;;;;;;;;;4999178;28;20434;-82
2022/11/11 01:54:49;;;;;;;1.90;1.20;;;;;;;;;;4999712;28;20053;-83
2022/11/11 01:57:49;;;;;;;2.08;1.20;;;;;;;;;;4999989;28;20122;-82
2022/11/11 02:00:33;;;;;;;1.30;1.00;;;;;;;;;;5000257;28;20102;-82
2022/11/11 02:03:21;;;;;;;2.40;1.35;;;;;;;;;;5000035;28;20072;-83
2022/11/11 02:06:07;;;;;;;1.42;1.00;;;;;;;;;;4998596;28;20056;-82
2022/11/11 02:08:51;;;;;;;1.27;1.13;;;;;;;;;;4998526;28;20484;-83
2022/11/11 02:14:50;;;;;;;2.10;1.23;;;;;;;;;;4998741;28;20177;-82
2022/11/11 02:17:34;;;;;;;;;;;;;;;;;;5000412;28;20060;-81
2022/11/11 02:20:22;;;;;;;2.03;1.30;;;;;;;;;;4999545;28;20020;-82
2022/11/11 02:23:12;;;;;;;2.65;1.20;;;;;;;;;;4999336;28;20049;-82
2022/11/11 02:25:58;;;;;;;2.22;1.27;;;;;;;;;;4999591;28;20081;-82
2022/11/11 02:28:43;;;;;;;1.45;1.20;;;;;;;;;;4999789;28;20093;-83
2022/11/11 02:31:28;;;;;;;2.90;1.35;;;;;;;;;;4999565;28;20049;-82
2022/11/11 02:34:12;;;;;;;1.92;1.30;;;;;;;;;;4999246;28;20458;-82
2022/11/11 02:36:57;;;;;;;1.70;1.10;;;;;;;;;;4999205;28;20435;-82
2022/11/11 02:39:44;;;;;;;2.05;1.23;;;;;;;;;;4998585;28;20057;-83
2022/11/11 02:42:29;;;;;;;2.95;1.20;;;;;;;;;;4998982;28;20049;-84
2022/11/11 02:45:13;;;;;;;1.85;1.20;;;;;;;;;;4998979;28;20050;-83
2022/11/11 02:47:57;;;;;;;;;;;;;;;;;;5000230;28;20049;-81
2022/11/11 02:50:41;;;;;;;2.35;1.38;;;;;;;;;;4999425;28;19924;-83
2022/11/11 02:53:26;;;;;;;1.92;1.33;;;;;;;;;;4998028;28;20069;-83
2022/11/11 02:56:10;;;;;;;3.75;1.30;;;;;;;;;;4998110;28;20491;-83
2022/11/11 02:58:53;;;;;;;;;;;;;;;;;;4999287;28;20085;-80
2022/11/11 03:01:38;;;;;;;2.90;1.50;;;;;;;;;;4998787;28;19936;-83
2022/11/11 03:04:22;;;;;;;2.03;1.40;;;;;;;;;;4997876;28;20041;-83
2022/11/11 03:07:06;;;;;;;1.83;1.20;;;;;;;;;;4997357;28;20053;-83
2022/11/11 03:09:50;;;;;;;1.10;1.00;;;;;;;;;;4997481;28;20129;-83
2022/11/11 03:12:34;;;;;;;1.58;1.17;;;;;;;;;;4998558;28;20124;-83
2022/11/11 03:15:18;;;;;;;1.77;1.10;;;;;;;;;;4997096;28;20080;-82
2022/11/11 03:18:02;;;;;;;1.67;1.13;;;;;;;;;;4996717;28;20172;-82
2022/11/11 03:21:05;;;;;;;1.35;1.00;;;;;;;;;;4998113;28;20103;-83
2022/11/11 03:23:49;;;;;;;1.45;1.20;;;;;;;;;;4997179;28;20056;-81
2022/11/11 03:26:33;;;;;;;2.85;1.50;;;;;;;;;;4998213;28;20073;-82
2022/11/11 03:29:17;;;;;;;;;;;;;;;;;;4998210;28;20085;-80
2022/11/11 03:32:01;;;;;;;1.77;1.23;;;;;;;;;;4998299;28;20349;-83
2022/11/11 03:34:45;;;;;;;2.67;1.10;;;;;;;;;;4996921;28;20100;-82
2022/11/11 03:40:32;;;;;;;1.73;1.20;;;;;;;;;;4998039;28;20092;-83
2022/11/11 03:43:18;;;;;;;2.80;1.20;;;;;;;;;;4996849;28;20042;-82
2022/11/11 03:46:04;;;;;;;1.58;1.13;;;;;;;;;;4996973;28;20462;-83
2022/11/11 03:48:48;;;;;;;1.60;1.20;;;;;;;;;;4997236;28;20108;-83
2022/11/11 03:51:32;;;;;;;2.00;1.30;;;;;;;;;;4997838;28;20049;-84
2022/11/11 03:54:16;;;;;;;1.80;1.20;;;;;;;;;;4997236;28;20109;-83
2022/11/11 03:57:45;;;;;;;1.50;1.20;;;;;;;;;;4996742;28;20045;-83
2022/11/11 04:00:05;;;;;;;1.52;1.33;;;;;;;;;;4995505;28;20052;-82
2022/11/11 04:11:58;;;;;;;1.42;1.20;;;;;;;;;;4996689;28;20088;-83
2022/11/11 04:17:45;;;;;;;1.75;1.20;;;;;;;;;;4977813;28;19921;-82
2022/11/11 04:23:31;;;;;;;1.55;1.30;;;;;;;;;;4978166;28;20495;-83
2022/11/11 04:26:16;;;;;;;1.92;1.30;;;;;;;;;;4977755;28;20049;-81
2022/11/11 04:35:11;;;;;;;1.67;1.20;;;;;;;;;;4977173;28;20089;-83
2022/11/11 04:41:02;;;;;;;1.55;1.25;;;;;;;;;;4978469;28;20109;-84
2022/11/11 04:41:02;;;;;;;1.52;1.30;;;;;;;;;;4978370;28;20069;-83
2022/11/11 04:46:49;;;;;;;1.50;1.20;;;;;;;;;;4995719;28;20430;-83
2022/11/11 04:49:33;;;;;;;1.50;1.10;;;;;;;;;;4996149;28;20048;-83
2022/11/11 04:52:25;;;;;;;2.08;1.30;;;;;;;;;;4997308;28;20105;-83
2022/11/11 04:58:13;;;;;;;1.98;1.10;;;;;;;;;;4997313;28;20048;-82
2022/11/11 05:00:57;;;;;;;2.05;1.20;;;;;;;;;;4999079;28;20131;-85
2022/11/11 05:03:41;;;;;;;1.40;1.10;;;;;;;;;;5003435;28;20093;-85
2022/11/11 05:09:28;;;;;;;1.30;1.00;;;;;;;;;;5003824;28;20136;-85
2022/11/11 05:12:12;;;;;;;2.15;1.50;;;;;;;;;;5002018;28;20148;-85
2022/11/11 05:21:20;;;;;;;1.48;1.10;;;;;;;;;;5003207;28;20522;-85
2022/11/11 05:27:08;;;;;;;1.00;0.90;;;;;;;;;;5003562;28;20040;-84
2022/11/11 05:29:52;;;;;;;2.55;1.30;;;;;;;;;;5003214;28;20053;-85
2022/11/11 05:32:36;;;;;;;;;;;;;;;;;;5003814;28;20081;-83
2022/11/11 05:35:20;;;;;;;1.67;1.30;;;;;;;;;;5003478;28;19976;-85
2022/11/11 05:38:19;;;;;;;2.58;1.48;;;;;;;;;;5003269;28;20146;-84
2022/11/11 05:41:04;;;;;;;1.92;1.30;;;;;;;;;;5003784;28;20065;-84
2022/11/11 05:43:48;;;;;;;4.78;1.17;;;;;;;;;;5003675;28;20662;-85
2022/11/11 05:46:32;;;;;;;1.55;1.20;;;;;;;;;;5002524;28;20049;-85
2022/11/11 05:49:16;;;;;;;;;;;;;;;;;;5004377;28;20049;-83
2022/11/11 05:52:01;;;;;;;1.40;1.10;;;;;;;;;;5002406;28;19925;-85
2022/11/11 05:54:45;;;;;;;1.73;1.20;;;;;;;;;;5001238;28;20525;-84
2022/11/11 05:57:29;;;;;;;1.67;1.20;;;;;;;;;;4987484;28;20423;-85
2022/11/11 06:00:14;;;;;;;3.50;1.38;;;;;;;;;;4982512;28;20049;-85
2022/11/11 06:03:03;;;;;;;3.15;1.20;;;;;;;;;;4981884;28;20061;-85
2022/11/11 06:05:47;;;;;;;3.28;1.40;;;;;;;;;;4983229;28;20137;-84
2022/11/11 06:08:31;;;;;;;2.28;1.30;;;;;;;;;;4984510;28;20411;-85
2022/11/11 06:11:15;;;;;;;3.45;1.52;;;;;;;;;;4983084;28;20056;-84
2022/11/11 06:13:59;;;;;;;4.40;1.40;;;;;;;;;;4979343;28;20049;-85
2022/11/11 06:16:43;;;;;;;1.63;1.23;;;;;;;;;;4980235;28;20293;-84
2022/11/11 06:19:27;;;;;;;5.25;1.80;;;;;;;;;;4980051;28;20054;-85
2022/11/11 06:22:11;;;;;;;3.08;1.95;;;;;;;;;;4980647;28;20066;-85
2022/11/11 06:26:11;;;;;;;;;;;;;;;;;;4980077;28;20052;-83
2022/11/11 06:27:59;;;;;;;3.28;1.50;;;;;;;;;;4980933;28;20275;-85
2022/11/11 06:30:44;;;;;;;3.05;2.05;;;;;;;;;;4978764;28;20054;-85
2022/11/11 06:33:28;;;;;;;5.13;1.90;;;;;;;;;;4979946;28;20046;-84
2022/11/11 06:36:14;;;;;;;3.75;2.75;;;;;;;;;;4979119;28;20057;-85
2022/11/11 06:38:59;;;;;;;4.30;3.08;;;;;;;;;;4980722;28;20054;-85
2022/11/11 06:41:43;;;;;;;3.50;2.33;;;;;;;;;;4979681;28;20046;-85
2022/11/11 06:44:27;;;;;;;2.97;2.15;;;;;;;;;;4979000;28;20124;-84
2022/11/11 06:47:11;;;;;;;4.03;2.28;;;;;;;;;;4980009;28;20049;-84
2022/11/11 06:49:55;;;;;;;;;;;;;;;;;;4979890;28;20073;-83
2022/11/11 06:52:39;;;;;;;3.13;2.15;;;;;;;;;;4979191;28;19929;-84
2022/11/11 06:55:23;;;;;;;2.58;1.63;;;;;;;;;;4979555;28;20054;-85
2022/11/11 06:58:12;;;;;;;9.27;2.60;;;;;;;;;;4979011;28;20111;-85
2022/11/11 07:00:56;;;;;;;2.42;1.90;;;;;;;;;;4984118;28;20141;-84
2022/11/11 07:03:40;;;;;;;3.60;1.55;;;;;;;;;;4998577;28;20048;-85
2022/11/11 07:06:24;;;;;;;2.45;1.52;;;;;;;;;;4999829;28;20069;-86
2022/11/11 07:09:08;;;;;;;5.40;2.20;;;;;;;;;;4997702;28;20516;-84
2022/11/11 07:11:52;;;;;;;4.70;2.78;;;;;;;;;;4999302;28;20061;-81
2022/11/11 07:14:36;;;;;;;5.05;2.67;;;;;;;;;;4996867;28;20049;-85
2022/11/11 07:17:20;;;;;;;4.97;2.40;;;;;;;;;;4998215;28;20057;-84
2022/11/11 07:20:04;;;;;;;;;;;;;;;;;;4998925;28;20057;-83
2022/11/11 07:22:48;;;;;;;5.00;1.75;;;;;;;;;;4998165;28;19956;-84
2022/11/11 07:25:32;;;;;;;3.75;1.35;;;;;;;;;;4998495;28;20053;-85
2022/11/11 07:28:16;;;;;;;3.30;1.92;;;;;;;;;;4998112;28;20133;-84
2022/11/11 07:31:00;;;;;;;1.92;1.35;;;;;;;;;;4998263;28;20045;-84
2022/11/11 07:33:44;;;;;;;1.38;1.00;;;;;;;;;;4997639;28;20065;-83
2022/11/11 07:36:28;;;;;;;1.15;0.73;;;;;;;;;;4997182;28;20065;-85
2022/11/11 07:39:12;;;;;;;1.25;1.05;;;;;;;;;;4997119;28;20061;-85
2022/11/11 07:41:56;;;;;;;4.25;1.10;;;;;;;;;;4997591;28;20188;-86
2022/11/11 07:44:40;;;;;;;2.25;1.70;;;;;;;;;;4995627;28;20049;-86
2022/11/11 07:47:25;;;;;;;7.70;3.78;;;;;;;;;;4997559;28;20077;-86
2022/11/11 07:50:10;;;;;;;1.83;1.05;;;;;;;;;;4999826;28;20080;-86
2022/11/11 07:52:54;;;;;;;6.50;2.78;;;;;;;;;;4998334;28;20057;-84
2022/11/11 07:55:38;;;;;;;4.55;2.67;;;;;;;;;;4996467;28;20131;-85
2022/11/11 07:58:22;;;;;;;7.85;4.40;;;;;;;;;;4996277;28;20053;-85
2022/11/11 08:01:06;;;;;;;2.28;1.30;;;;;;;;;;4997931;28;20116;-85
2022/11/11 08:03:50;;;;;;;1.95;0.98;;;;;;;;;;4997582;28;20561;-85
2022/11/11 08:06:34;;;;;;;1.13;0.90;;;;;;;;;;4971511;28;20630;-85
2022/11/11 08:09:18;;;;;;;1.35;0.90;;;;;;;;;;4970369;28;20128;-84
2022/11/11 08:15:06;;;;;;;6.05;2.80;;;;;;;;;;4995300;28;20049;-85
2022/11/11 08:17:49;;;;;;;5.95;3.15;;;;;;;;;;4997160;28;20077;-85
2022/11/11 08:20:34;;;;;;;3.35;2.00;;;;;;;;;;4997645;28;20115;-86
2022/11/11 08:23:24;;;;;;;3.58;1.90;;;;;;;;;;4998685;28;20045;-87
2022/11/11 08:26:08;;;;;;;6.05;1.40;;;;;;;;;;4995980;28;20093;-83
2022/11/11 08:28:52;;;;;;;2.45;1.38;;;;;;;;;;4997053;28;20052;-84
2022/11/11 08:31:38;;;;;;;9.30;1.20;;;;;;;;;;4996140;28;20078;-84
2022/11/11 08:34:22;;;;;;;2.75;1.20;;;;;;;;;;4997949;28;20049;-84
2022/11/11 08:37:06;;;;;;;2.40;1.10;;;;;;;;;;4997032;28;20173;-84
2022/11/11 08:39:51;;;;;;;2.58;1.10;;;;;;;;;;4997299;28;20057;-85
2022/11/11 08:42:35;;;;;;;1.55;1.10;;;;;;;;;;4998196;28;20044;-85
2022/11/11 08:45:19;;;;;;;6.05;1.33;;;;;;;;;;4996455;28;20184;-86
2022/11/11 08:48:04;;;;;;;4.15;1.40;;;;;;;;;;4997098;28;20061;-85
2022/11/11 08:50:51;;;;;;;1.25;1.00;;;;;;;;;;4997932;28;20504;-85
2022/11/11 08:53:35;;;;;;;2.55;1.10;;;;;;;;;;4997810;28;20070;-86
2022/11/11 08:56:19;;;;;;;1.55;1.10;;;;;;;;;;4996141;28;20061;-85
2022/11/11 08:59:03;;;;;;;;;;;;;;;;;;4997376;28;20058;-83
2022/11/11 09:01:47;;;;;;;1.70;1.00;;;;;;;;;;4998733;28;19920;-86
2022/11/11 09:04:31;;;;;;;2.90;1.27;;;;;;;;;;4997602;28;20061;-85
2022/11/11 09:07:15;;;;;;;10.30;4.22;;;;;;;;;;4997835;28;20100;-85
2022/11/11 09:09:59;;;;;;;;;;;;;;;;;;4999164;28;20246;-84
2022/11/11 09:12:43;;;;;;;2.88;1.70;;;;;;;;;;4998220;28;20064;-87
2022/11/11 09:15:27;;;;;;;2.40;1.33;;;;;;;;;;4997887;28;20053;-87
2022/11/11 09:18:11;;;;;;;2.45;1.70;;;;;;;;;;4998532;28;20346;-87
2022/11/11 09:20:58;;;;;;;2.47;1.58;;;;;;;;;;4996333;28;20045;-88
2022/11/11 09:23:42;;;;;;;3.72;2.40;;;;;;;;;;4996465;28;20113;-87
2022/11/11 09:26:26;;;;;;;2.22;1.50;;;;;;;;;;4996465;28;20073;-87
2022/11/11 09:29:10;;;;;;;4.13;1.48;;;;;;;;;;4997694;28;20122;-86
2022/11/11 09:31:54;;;;;;;2.88;1.60;;;;;;;;;;4995689;28;20054;-86
2022/11/11 09:34:38;;;;;;;2.08;1.30;;;;;;;;;;4994690;28;20093;-86
2022/11/11 09:37:21;;;;;;;;;;;;;;;;;;4996882;28;20101;-83
2022/11/11 09:40:06;;;;;;;1.88;1.10;;;;;;;;;;4998719;28;19960;-85
2022/11/11 09:43:16;;;;;;;1.42;1.00;;;;;;;;;;4997241;28;20049;-85
2022/11/11 09:46:19;;;;;;;3.05;1.20;;;;;;;;;;4996111;28;20542;-87
2022/11/11 09:49:15;;;;;;;3.20;2.38;;;;;;;;;;5001974;28;20463;-87
2022/11/11 09:52:02;;;;;;;2.53;1.70;;;;;;;;;;5002125;28;20129;-88
2022/11/11 09:54:53;;;;;;;4.22;1.50;;;;;;;;;;4999276;28;20108;-86
2022/11/11 09:57:40;;;;;;;1.52;1.10;;;;;;;;;;5000763;28;20105;-87
2022/11/11 10:00:28;;;;;;;2.03;1.27;;;;;;;;;;5001281;28;20089;-87
2022/11/11 10:03:21;;;;;;;1.52;0.98;;;;;;;;;;4999784;28;20518;-87
2022/11/11 10:06:12;;;;;;;1.40;1.00;;;;;;;;;;5000756;28;20057;-86
2022/11/11 10:09:10;;;;;;;1.23;0.90;;;;;;;;;;5002020;28;20065;-88
2022/11/11 10:12:11;;;;;;;2.58;1.00;;;;;;;;;;5003409;28;20045;-87
2022/11/11 10:14:56;;;;;;;0.70;0.55;;;;;;;;;;5001233;28;20074;-87
2022/11/11 10:17:51;;;;;;;1.20;0.70;;;;;;;;;;5002580;28;20100;-86
2022/11/11 10:20:41;;;;;;;1.48;0.80;;;;;;;;;;5001423;28;20071;-87
2022/11/11 10:23:31;;;;;;;0.68;0.60;;;;;;;;;;5002039;28;20049;-86
2022/11/11 10:26:26;;;;;;;1.88;1.20;;;;;;;;;;4999425;28;20093;-86
2022/11/11 10:29:18;;;;;;;1.10;0.80;;;;;;;;;;4999777;28;20049;-87
2022/11/11 10:32:15;;;;;;;4.38;0.80;;;;;;;;;;4999028;28;20490;-83
2022/11/11 10:35:12;;;;;;;1.25;0.80;;;;;;;;;;4997152;28;20634;-84
2022/11/11 10:38:15;;;;;;;1.23;0.63;;;;;;;;;;4997998;28;20065;-84
2022/11/11 10:41:10;;;;;;;2.45;0.70;;;;;;;;;;5000899;28;20049;-86
2022/11/11 10:43:54;;;;;;;1.00;0.80;;;;;;;;;;5000100;28;20045;-86
2022/11/11 10:46:49;;;;;;;2.35;0.90;;;;;;;;;;5000395;28;20435;-85
2022/11/11 10:49:41;;;;;;;0.98;0.77;;;;;;;;;;5000485;28;20146;-86
2022/11/11 10:52:34;;;;;;;2.15;0.82;;;;;;;;;;4999901;28;20129;-85
2022/11/11 10:55:24;;;;;;;2.60;1.02;;;;;;;;;;4999227;28;20076;-85
2022/11/11 10:58:34;;;;;;;1.60;0.73;;;;;;;;;;5000158;28;20140;-87
2022/11/11 11:01:30;;;;;;;1.30;0.90;;;;;;;;;;4998663;28;20514;-87
2022/11/11 11:04:25;;;;;;;0.70;0.60;;;;;;;;;;4999621;28;20088;-86
2022/11/11 11:07:14;;;;;;;1.73;0.90;;;;;;;;;;5000875;28;20048;-87
2022/11/11 11:10:14;;;;;;;1.58;0.88;;;;;;;;;;5000560;28;20053;-87
2022/11/11 11:13:06;;;;;;;0.93;0.60;;;;;;;;;;5000588;28;20058;-85
2022/11/11 11:15:57;;;;;;;3.47;1.50;;;;;;;;;;5001201;28;20049;-85
2022/11/11 11:18:41;;;;;;;3.90;2.10;;;;;;;;;;4999854;28;20049;-86
2022/11/11 11:21:25;;;;;;;3.05;1.05;;;;;;;;;;5001053;28;20593;-87
2022/11/11 11:24:19;;;;;;;;;;;;;;;;;;5000781;28;20057;-86
2022/11/11 11:27:06;;;;;;;1.45;0.88;;;;;;;;;;5001626;28;19921;-86
2022/11/11 11:29:50;;;;;;;1.58;0.68;;;;;;;;;;4999775;28;20150;-86
2022/11/11 11:32:34;;;;;;;0.90;0.70;;;;;;;;;;5000268;28;20054;-86
2022/11/11 11:35:39;;;;;;;1.40;0.80;;;;;;;;;;4999541;28;20141;-86
2022/11/11 11:38:51;;;;;;;1.83;1.20;;;;;;;;;;4999805;28;20048;-86
2022/11/11 11:41:40;;;;;;;6.28;1.90;;;;;;;;;;4999524;28;20058;-85
2022/11/11 11:44:30;;;;;;;1.13;0.85;;;;;;;;;;4999874;28;20053;-86
2022/11/11 11:47:46;;;;;;;1.08;0.77;;;;;;;;;;5000811;28;20446;-86
2022/11/11 11:50:52;;;;;;;1.65;0.80;;;;;;;;;;4972214;28;20374;-86
2022/11/11 11:53:58;;;;;;;0.93;0.80;;;;;;;;;;5002017;28;20084;-85
2022/11/11 11:56:48;;;;;;;1.08;0.80;;;;;;;;;;5001103;28;20048;-86
2022/11/11 11:59:42;;;;;;;2.00;0.80;;;;;;;;;;5001030;28;20533;-86
2022/11/11 12:02:50;;;;;;;1.70;0.97;;;;;;;;;;5000669;28;20049;-87
2022/11/11 12:06:03;;;;;;;0.80;0.80;;;;;;;;;;5000817;28;20280;-87
2022/11/11 12:09:12;;;;;;;0.98;0.80;;;;;;;;;;4981159;28;20066;-87
2022/11/11 12:12:01;;;;;;;1.40;1.10;;;;;;;;;;4998094;28;20045;-87
2022/11/11 12:15:11;;;;;;;1.52;1.20;;;;;;;;;;4997162;28;20053;-88
2022/11/11 12:18:26;;;;;;;0.93;0.80;;;;;;;;;;4995569;28;20141;-88
2022/11/11 12:21:15;;;;;;;1.40;1.10;;;;;;;;;;4998280;28;20049;-86
2022/11/11 12:24:08;;;;;;;0.85;0.77;;;;;;;;;;4994887;28;20053;-87
2022/11/11 12:26:59;;;;;;;1.90;0.90;;;;;;;;;;4977727;28;20077;-88
2022/11/11 12:30:01;;;;;;;1.65;0.80;;;;;;;;;;4977322;28;20175;-87
2022/11/11 12:32:54;;;;;;;1.25;0.80;;;;;;;;;;4976557;28;20062;-87
2022/11/11 12:36:03;;;;;;;1.20;0.80;;;;;;;;;;4975812;28;20130;-87
2022/11/11 12:39:06;;;;;;;1.05;0.80;;;;;;;;;;4976207;28;20274;-87
2022/11/11 12:42:18;;;;;;;1.58;0.90;;;;;;;;;;4994737;28;20104;-87
2022/11/11 12:45:23;;;;;;;3.08;1.20;;;;;;;;;;4994109;28;20070;-88
2022/11/11 12:48:29;;;;;;;1.40;1.08;;;;;;;;;;4996673;28;20187;-88
2022/11/11 12:51:32;;;;;;;1.23;1.00;;;;;;;;;;4995580;28;20050;-87
2022/11/11 12:54:28;;;;;;;0.95;0.80;;;;;;;;;;4996406;28;20061;-88
2022/11/11 12:57:25;;;;;;;1.92;0.80;;;;;;;;;;4993941;28;20049;-87
2022/11/11 13:00:19;;;;;;;1.70;0.90;;;;;;;;;;4994657;28;20128;-88
2022/11/11 13:03:06;;;;;;;;;;;;;;;;;;4994970;28;20170;-88
2022/11/11 13:06:08;;;;;;;1.17;0.90;;;;;;;;;;4993619;28;20040;-87
2022/11/11 13:09:09;;;;;;;2.30;0.80;;;;;;;;;;4994396;28;20052;-88
2022/11/11 13:12:10;;;;;;;1.70;0.70;;;;;;;;;;4992948;28;20133;-87
2022/11/11 13:15:04;;;;;;;1.30;0.80;;;;;;;;;;4992650;28;20049;-86
2022/11/11 13:17:49;;;;;;;2.65;0.90;;;;;;;;;;4997238;28;20097;-87
2022/11/11 13:20:43;;;;;;;1.50;0.70;;;;;;;;;;4993542;28;20046;-86
2022/11/11 13:23:27;;;;;;;;;;;;;;;;;;4981704;28;20066;-86
2022/11/11 13:26:24;;;;;;;2.03;0.90;;;;;;;;;;4981654;28;19968;-86
2022/11/11 13:29:27;;;;;;;1.13;0.85;;;;;;;;;;4980319;28;20073;-86
2022/11/11 13:32:14;;;;;;;1.15;0.90;;;;;;;;;;4981200;28;20053;-86
2022/11/11 13:34:59;;;;;;;1.30;1.00;;;;;;;;;;4980501;28;20134;-86
2022/11/11 13:37:44;;;;;;;2.00;1.00;;;;;;;;;;4981281;28;20415;-86
2022/11/11 13:40:37;;;;;;;1.30;1.00;;;;;;;;;;4980746;28;20057;-87
2022/11/11 13:43:27;;;;;;;3.17;1.20;;;;;;;;;;4980670;28;20514;-86
2022/11/11 13:46:38;;;;;;;1.65;1.05;;;;;;;;;;4979269;28;20042;-86
2022/11/11 13:49:28;;;;;;;2.50;1.08;;;;;;;;;;4981968;28;20063;-86
2022/11/11 13:52:26;;;;;;;2.67;1.17;;;;;;;;;;4981438;28;20085;-86
2022/11/11 13:55:27;;;;;;;2.15;1.10;;;;;;;;;;4982092;28;20498;-86
2022/11/11 13:58:34;;;;;;;2.30;1.05;;;;;;;;;;4981659;28;20085;-86
2022/11/11 14:01:18;;;;;;;1.40;1.00;;;;;;;;;;4980958;28;20046;-86
2022/11/11 14:04:07;;;;;;;1.65;1.20;;;;;;;;;;4980659;28;20045;-86
2022/11/11 14:06:52;;;;;;;3.30;1.45;;;;;;;;;;4981122;28;20423;-86
2022/11/11 14:09:59;;;;;;;3.05;1.40;;;;;;;;;;4981086;28;20138;-87
2022/11/11 14:12:43;;;;;;;4.07;1.10;;;;;;;;;;4978103;28;20058;-86
2022/11/11 14:15:41;;;;;;;5.22;1.30;;;;;;;;;;4977394;28;20041;-87
2022/11/11 14:18:27;;;;;;;3.97;1.45;;;;;;;;;;4977749;28;20046;-87
2022/11/11 14:21:57;;;;;;;1.60;1.00;;;;;;;;;;4977972;28;20053;-87
2022/11/11 14:24:46;;;;;;;3.10;1.20;;;;;;;;;;4976280;28;20511;-87
2022/11/11 14:27:32;;;;;;;3.53;1.20;;;;;;;;;;4962545;28;20065;-87
2022/11/11 14:30:52;;;;;;;3.65;1.20;;;;;;;;;;4977188;28;20053;-88
2022/11/11 14:33:39;;;;;;;1.88;1.33;;;;;;;;;;4974204;28;20050;-86
2022/11/11 14:36:32;;;;;;;1.45;1.02;;;;;;;;;;4976624;28;20045;-87
2022/11/11 14:39:38;;;;;;;1.88;1.35;;;;;;;;;;4976315;28;20061;-87
2022/11/11 14:46:13;;;;;;;1.70;1.10;;;;;;;;;;4973700;28;20054;-88
2022/11/11 14:49:00;;;;;;;2.38;1.00;;;;;;;;;;4976549;28;20138;-87
2022/11/11 14:51:54;;;;;;;2.47;1.20;;;;;;;;;;4979559;28;20107;-87
2022/11/11 14:54:48;;;;;;;1.52;1.10;;;;;;;;;;4977579;28;20077;-87
2022/11/11 14:57:43;;;;;;;8.65;4.63;;;;;;;;;;4978277;28;20046;-87
2022/11/11 15:00:32;;;;;;;6.22;3.53;;;;;;;;;;4978227;28;20057;-87
2022/11/11 15:03:28;;;;;;;5.50;3.10;;;;;;;;;;4976598;28;20122;-87
2022/11/11 15:06:25;;;;;;;7.65;4.10;;;;;;;;;;4978062;28;20139;-87
2022/11/11 15:09:34;;;;;;;5.43;3.53;;;;;;;;;;4979518;28;20081;-87
2022/11/11 15:16:25;;;;;;;;;;;;;;;;;;;;;
2022/11/11 15:19:18;;;;;;;3.25;1.00;;;;;;;;;;4981406;28;20105;-87
2022/11/11 15:22:38;;;;;;;1.92;1.20;;;;;;;;;;4981203;28;20054;-88
2022/11/11 15:25:32;;;;;;;2.33;1.45;;;;;;;;;;4980845;28;20415;-87
2022/11/11 15:28:28;;;;;;;1.73;1.10;;;;;;;;;;4982021;28;20046;-86
2022/11/11 15:31:48;;;;;;;1.92;1.20;;;;;;;;;;4981660;28;20053;-88
2022/11/11 15:34:38;;;;;;;1.52;0.95;;;;;;;;;;4970185;28;20050;-87
2022/11/11 15:37:42;;;;;;;2.10;1.00;;;;;;;;;;4978744;28;20042;-89
2022/11/11 15:40:40;;;;;;;1.48;1.10;;;;;;;;;;4982983;28;20050;-87
2022/11/11 15:43:30;;;;;;;2.20;1.20;;;;;;;;;;4984358;28;20057;-87
2022/11/11 15:46:26;;;;;;;1.15;0.90;;;;;;;;;;4983332;28;20105;-88
2022/11/11 15:49:41;;;;;;;2.00;1.10;;;;;;;;;;4980793;28;20116;-88
2022/11/11 15:52:27;;;;;;;3.42;1.08;;;;;;;;;;4980657;28;20101;-89
2022/11/11 15:55:27;;;;;;;2.17;1.00;;;;;;;;;;4979164;28;20066;-89
2022/11/11 15:58:23;;;;;;;4.13;1.30;;;;;;;;;;4980578;28;20105;-89
2022/11/11 16:01:07;;;;;;;6.95;3.92;;;;;;;;;;4979462;28;20061;-89
2022/11/11 16:03:52;;;;;;;12.30;5.88;;;;;;;;;;4979783;28;20053;-89
2022/11/11 16:06:40;;;;;;;8.07;5.07;;;;;;;;;;4980461;28;20054;-90
2022/11/11 16:09:27;;;;;;;9.38;5.25;;;;;;;;;;4978866;28;20093;-89
2022/11/11 16:12:16;;;;;;;11.07;6.60;;;;;;;;;;4978563;28;20070;-88
2022/11/11 16:15:04;;;;;;;8.25;5.20;;;;;;;;;;4973348;28;20053;-88
2022/11/11 16:17:49;;;;;;;8.27;4.82;;;;;;;;;;4975885;28;20053;-88
2022/11/11 16:20:44;;;;;;;10.40;5.57;;;;;;;;;;4974855;28;20046;-88
2022/11/11 16:45:09;;;;;;;;;;;;;;;;;;;;;
2022/11/11 16:47:59;;;;;;;9.20;4.90;;;;;;;;;;4979649;28;20062;-89
2022/11/11 16:51:14;;;;;;;;;;;;;;;;;;;;;
2022/11/11 17:04:51;;;;;;;4.65;2.00;;;;;;;;;;4708700;26;20070;-89
2022/11/11 17:07:38;;;;;;;3.63;2.10;;;;;;;;;;4979311;28;20630;-87
2022/11/11 17:10:45;;;;;;;3.97;2.00;;;;;;;;;;4978318;28;20058;-89
2022/11/11 17:13:31;;;;;;;5.35;2.38;;;;;;;;;;4977566;28;20049;-90
2022/11/11 17:17:07;;;;;;;4.57;2.50;;;;;;;;;;4964943;28;20062;-89
2022/11/11 17:23:07;;;;;;;14.70;8.25;;;;;;;;;;4997564;28;20172;-89
2022/11/11 17:25:55;;;;;;;8.05;4.00;;;;;;;;;;4997487;28;20442;-86
2022/11/11 17:28:40;;;;;;;9.23;3.47;;;;;;;;;;4996388;28;20081;-87
2022/11/11 17:31:24;;;;;;;7.53;3.60;;;;;;;;;;4996603;28;20514;-86
2022/11/11 17:34:09;;;;;;;5.50;3.60;;;;;;;;;;4995516;28;20057;-86
2022/11/11 17:36:56;;;;;;;5.10;2.85;;;;;;;;;;4996598;28;20041;-87
2022/11/11 17:39:43;;;;;;;6.50;3.33;;;;;;;;;;4996739;28;20114;-87
2022/11/11 17:42:29;;;;;;;5.63;3.15;;;;;;;;;;4996103;28;20116;-88
2022/11/11 17:45:13;;;;;;;6.70;3.80;;;;;;;;;;4995881;28;20097;-85
2022/11/11 17:47:57;;;;;;;4.38;2.83;;;;;;;;;;4995467;28;20052;-85
2022/11/11 17:50:41;;;;;;;4.90;2.60;;;;;;;;;;4954785;28;20085;-86
2022/11/11 17:53:25;;;;;;;4.15;2.80;;;;;;;;;;4995549;28;20193;-86
2022/11/11 17:56:10;;;;;;;5.90;2.90;;;;;;;;;;4995343;28;20621;-85
2022/11/11 17:58:54;;;;;;;6.03;2.80;;;;;;;;;;4995446;28;20099;-85
2022/11/11 18:01:38;;;;;;;5.93;3.85;;;;;;;;;;4995629;28;20077;-85
2022/11/11 18:04:22;;;;;;;6.10;4.07;;;;;;;;;;4995714;28;20109;-85
2022/11/11 18:07:07;;;;;;;9.13;4.00;;;;;;;;;;4996039;28;20048;-85
2022/11/11 18:09:50;;;;;;;8.85;3.83;;;;;;;;;;4998598;28;20061;-86
2022/11/11 18:12:35;;;;;;;6.82;3.80;;;;;;;;;;4999404;28;20120;-85
2022/11/11 18:15:20;;;;;;;5.47;3.53;;;;;;;;;;4999609;28;20134;-85
2022/11/11 18:18:04;;;;;;;6.28;3.30;;;;;;;;;;4999442;28;20537;-87
2022/11/11 18:20:49;;;;;;;;;;;;;;;;;;5000274;28;20534;-88
2022/11/11 18:23:36;;;;;;;4.10;2.75;;;;;;;;;;4999833;28;19920;-88
2022/11/11 18:26:20;;;;;;;9.32;4.72;;;;;;;;;;4998857;28;20118;-89
2022/11/11 18:29:06;;;;;;;51.85;25.27;;;;;;;;;;4993682;28;20058;-89
2022/11/11 18:31:50;;;;;;;40.20;19.23;;;;;;;;;;4999222;28;20137;-88
2022/11/11 18:34:34;;;;;;;;;;;;;;;;;;4997226;28;20513;-86
2022/11/11 18:37:18;;;;;;;13.85;7.32;;;;;;;;;;4990551;28;19928;-87
2022/11/11 18:40:02;;;;;;;49.65;23.38;;;;;;;;;;5001217;28;20053;-87
2022/11/11 18:42:46;;;;;;;16.02;8.40;;;;;;;;;;4998589;28;20045;-88
2022/11/11 18:45:30;;;;;;;18.38;9.80;;;;;;;;;;4996915;28;20041;-88
2022/11/11 18:48:14;;;;;;;18.80;11.40;;;;;;;;;;4983179;28;20470;-88
2022/11/11 18:50:58;;;;;;;14.80;8.57;;;;;;;;;;4997593;28;20041;-89
2022/11/11 18:53:42;;;;;;;13.45;7.25;;;;;;;;;;4984654;28;20052;-89
2022/11/11 18:56:28;;;;;;;14.82;7.93;;;;;;;;;;4995796;28;20103;-86
2022/11/11 18:59:12;;;;;;;13.00;6.78;;;;;;;;;;4998366;28;20129;-84